Welcome to Northern Hawkes Bay. New Zealand.
PWS Header
      nz Flag



Hit Counter


W3C Valid W3C Valid logo


    Wairoa

Select any of the Stations below to visit their websites.










Historic Data from Weather Underground
Select the location of interest below. Wairoa is the default. Please have patience, this Data is slow to load in.
Northern Hawkes Bay Historical Data
Daily Summary for August 15, 2017 Units:  Metric    English   Both
« Previous Day
Next Day »
Daily Weekly Monthly Yearly Custom
  High: Low: Average:
Temperature: 16.7 °C 7.3 °C 11.7 °C
Dew Point: 6.8 °C 4.3 °C 5.4 °C
Humidity: 84% 48% 66%
Wind Speed: 19.5km/h 0.0km/h 6.6km/h
Wind Gust: 35.6km/h - -
Wind- - West
Pressure: 1011.1 hPa 1004.6 hPa -
Precipitation: 0.0 mm    
Historical Graphs
 
 
Tabular Data for August 15, 2017
Time Temperature Dew Point Pressure Wind Wind Speed Wind Gust Humidity Rainfall Rate (Hourly) solar
00:04 11.3 °C 4.9 °C 1005.3 hPa North 7.2 km/h 21.9 km/h 65% 0.0 mm 0 W/m2
00:09 11.0 °C 4.9 °C 1005.3 hPa North 8.7 km/h 14.8 km/h 66% 0.0 mm 0 W/m2
00:14 10.9 °C 5.2 °C 1005.3 hPa NNE 7.2 km/h 14.8 km/h 68% 0.0 mm 0 W/m2
00:19 10.8 °C 5.3 °C 1005.3 hPa NNE 2.6 km/h 13.4 km/h 69% 0.0 mm 0 W/m2
00:25 10.6 °C 5.3 °C 1005.3 hPa NNE 2.6 km/h 9.7 km/h 70% 0.0 mm 0 W/m2
00:30 10.5 °C 5.4 °C 1005.3 hPa NNE 2.6 km/h 9.7 km/h 71% 0.0 mm 0 W/m2
00:35 10.2 °C 5.2 °C 1005.3 hPa NE 1.1 km/h 7.2 km/h 71% 0.0 mm 0 W/m2
00:40 10.0 °C 5.4 °C 1005.3 hPa NE 5.0 km/h 7.2 km/h 73% 0.0 mm 0 W/m2
00:45 10.2 °C 5.6 °C 1005.3 hPa ENE 3.5 km/h 12.2 km/h 73% 0.0 mm 0 W/m2
00:50 10.2 °C 5.6 °C 1005.3 hPa ENE 2.6 km/h 12.2 km/h 73% 0.0 mm 0 W/m2
00:55 10.0 °C 5.4 °C 1005.3 hPa ENE 2.6 km/h 6.1 km/h 73% 0.0 mm 0 W/m2
01:00 9.9 °C 5.5 °C 1005.3 hPa ENE 1.1 km/h 5.0 km/h 74% 0.0 mm 0 W/m2
01:05 9.7 °C 5.5 °C 1005.3 hPa Calm   5.0 km/h 75% 0.0 mm 0 W/m2
01:10 9.5 °C 5.3 °C 1005.3 hPa ENE 1.1 km/h 5.0 km/h 75% 0.0 mm 0 W/m2
01:15 9.4 °C 5.2 °C 1005.3 hPa Calm   2.6 km/h 75% 0.0 mm 0 W/m2
01:20 9.4 °C 5.2 °C 1005.3 hPa Calm   2.6 km/h 75% 0.0 mm 0 W/m2
01:25 9.3 °C 5.1 °C 1005.0 hPa NE 5.0 km/h 6.1 km/h 75% 0.0 mm 0 W/m2
01:30 9.7 °C 5.5 °C 1005.0 hPa Calm   8.7 km/h 75% 0.0 mm 0 W/m2
01:35 9.5 °C 5.3 °C 1005.3 hPa Calm   8.7 km/h 75% 0.0 mm 0 W/m2
01:40 9.6 °C 5.4 °C 1005.3 hPa Calm     75% 0.0 mm 0 W/m2
01:45 9.5 °C 5.1 °C 1005.3 hPa Calm   3.5 km/h 74% 0.0 mm 0 W/m2
01:50 9.3 °C 4.9 °C 1005.3 hPa Calm   3.5 km/h 74% 0.0 mm 0 W/m2
01:55 9.3 °C 5.1 °C 1005.3 hPa Calm   2.6 km/h 75% 0.0 mm 0 W/m2
02:00 9.2 °C 4.8 °C 1005.3 hPa Calm     74% 0.0 mm 0 W/m2
02:05 9.1 °C 4.7 °C 1005.3 hPa Calm   1.1 km/h 74% 0.0 mm 0 W/m2
02:10 9.4 °C 5.2 °C 1005.3 hPa Calm   3.5 km/h 75% 0.0 mm 0 W/m2
02:15 9.7 °C 5.5 °C 1005.0 hPa Calm   5.0 km/h 75% 0.0 mm 0 W/m2
02:20 9.9 °C 5.5 °C 1005.0 hPa Calm   5.0 km/h 74% 0.0 mm 0 W/m2
02:25 9.8 °C 5.4 °C 1005.0 hPa Calm   2.6 km/h 74% 0.0 mm 0 W/m2
02:30 9.8 °C 5.4 °C 1005.0 hPa Calm   2.6 km/h 74% 0.0 mm 0 W/m2
02:36 9.6 °C 5.2 °C 1005.0 hPa Calm     74% 0.0 mm 0 W/m2
02:41 9.4 °C 5.0 °C 1005.0 hPa Calm   2.6 km/h 74% 0.0 mm 0 W/m2
02:46 9.2 °C 5.0 °C 1004.6 hPa Calm   2.6 km/h 75% 0.0 mm 0 W/m2
02:51 9.0 °C 4.8 °C 1005.0 hPa Calm     75% 0.0 mm 0 W/m2
02:56 8.7 °C 4.7 °C 1004.6 hPa Calm     76% 0.0 mm 0 W/m2
03:02 8.6 °C 4.8 °C 1005.0 hPa Calm     77% 0.0 mm 0 W/m2
03:07 8.4 °C 4.6 °C 1005.0 hPa Calm     77% 0.0 mm 0 W/m2
03:12 8.3 °C 4.7 °C 1005.0 hPa Calm     78% 0.0 mm 0 W/m2
03:17 8.3 °C 4.7 °C 1005.0 hPa North 2.6 km/h 5.0 km/h 78% 0.0 mm 0 W/m2
03:22 7.7 °C 4.7 °C 1004.6 hPa Calm   5.0 km/h 81% 0.0 mm 0 W/m2
03:27 7.4 °C 4.3 °C 1005.0 hPa Calm   5.0 km/h 81% 0.0 mm 0 W/m2
03:32 7.3 °C 4.4 °C 1005.0 hPa NW 3.5 km/h 5.0 km/h 82% 0.0 mm 0 W/m2
03:37 7.3 °C 4.6 °C 1005.0 hPa NW 3.5 km/h 5.0 km/h 83% 0.0 mm 0 W/m2
03:42 7.3 °C 4.6 °C 1005.0 hPa Calm   7.2 km/h 83% 0.0 mm 0 W/m2
03:47 7.9 °C 5.4 °C 1005.0 hPa NNW 2.6 km/h 8.7 km/h 84% 0.0 mm 0 W/m2
03:52 7.9 °C 5.2 °C 1004.6 hPa NNE 2.6 km/h 8.7 km/h 83% 0.0 mm 0 W/m2
03:57 8.1 °C 5.4 °C 1004.6 hPa NE 3.5 km/h 6.1 km/h 83% 0.0 mm 0 W/m2
04:02 8.2 °C 5.3 °C 1004.6 hPa NE 1.1 km/h 6.1 km/h 82% 0.0 mm 0 W/m2
04:07 8.3 °C 5.4 °C 1005.0 hPa NNE 5.0 km/h 7.2 km/h 82% 0.0 mm 0 W/m2
04:12 8.5 °C 5.4 °C 1004.6 hPa Calm   7.2 km/h 81% 0.0 mm 0 W/m2
04:17 8.3 °C 5.2 °C 1004.6 hPa NNW 1.1 km/h 7.2 km/h 81% 0.0 mm 0 W/m2
04:22 8.2 °C 4.9 °C 1004.6 hPa West 3.5 km/h 6.1 km/h 80% 0.0 mm 0 W/m2
04:27 7.7 °C 4.7 °C 1005.0 hPa WSW 3.5 km/h 8.7 km/h 81% 0.0 mm 0 W/m2
04:32 7.8 °C 4.9 °C 1005.0 hPa SW 2.6 km/h 8.7 km/h 82% 0.0 mm 0 W/m2
04:37 7.9 °C 5.0 °C 1004.6 hPa West 2.6 km/h 5.0 km/h 82% 0.0 mm 0 W/m2
04:42 8.3 °C 5.4 °C 1005.0 hPa NNW 2.6 km/h 7.2 km/h 82% 0.0 mm 0 W/m2
04:47 8.4 °C 5.2 °C 1005.0 hPa North 2.6 km/h 7.2 km/h 80% 0.0 mm 0 W/m2
04:52 8.6 °C 5.2 °C 1004.6 hPa Calm   5.0 km/h 79% 0.0 mm 0 W/m2
04:57 8.4 °C 4.9 °C 1005.0 hPa WNW 2.6 km/h 5.0 km/h 79% 0.0 mm 0 W/m2
05:02 8.2 °C 4.6 °C 1005.0 hPa NW 8.7 km/h 12.2 km/h 78% 0.0 mm 0 W/m2
05:07 8.6 °C 5.2 °C 1005.0 hPa NNW 5.0 km/h 12.2 km/h 79% 0.0 mm 0 W/m2
05:12 8.8 °C 5.2 °C 1005.0 hPa North 6.1 km/h 12.2 km/h 78% 0.0 mm 0 W/m2
05:17 8.9 °C 5.1 °C 1005.3 hPa North 5.0 km/h 9.7 km/h 77% 0.0 mm 0 W/m2
05:22 9.1 °C 5.1 °C 1005.3 hPa NNW 8.7 km/h 13.4 km/h 76% 0.0 mm 0 W/m2
05:27 9.6 °C 5.4 °C 1005.3 hPa NNW 9.7 km/h 14.8 km/h 75% 0.0 mm 0 W/m2
05:32 9.7 °C 5.1 °C 1005.3 hPa NNW 8.7 km/h 14.8 km/h 73% 0.0 mm 0 W/m2
05:37 9.8 °C 5.2 °C 1005.3 hPa NNW 7.2 km/h 14.8 km/h 73% 0.0 mm 0 W/m2
05:42 9.8 °C 5.0 °C 1005.3 hPa NW 6.1 km/h 11.1 km/h 72% 0.0 mm 0 W/m2
05:47 9.8 °C 5.0 °C 1005.3 hPa NW 5.0 km/h 11.1 km/h 72% 0.0 mm 0 W/m2
05:52 9.9 °C 4.9 °C 1005.6 hPa NNW 3.5 km/h 11.1 km/h 71% 0.0 mm 0 W/m2
05:57 9.7 °C 4.9 °C 1005.6 hPa NNW 5.0 km/h 7.2 km/h 72% 0.0 mm 0 W/m2
06:02 9.5 °C 4.7 °C 1006.0 hPa NNW 3.5 km/h 6.1 km/h 72% 0.0 mm 0 W/m2
06:07 9.4 °C 4.8 °C 1006.0 hPa NNW 3.5 km/h 6.1 km/h 73% 0.0 mm 0 W/m2
06:12 9.3 °C 4.7 °C 1006.0 hPa North 3.5 km/h 6.1 km/h 73% 0.0 mm 0 W/m2
06:17 9.1 °C 4.7 °C 1005.6 hPa North 2.6 km/h 6.1 km/h 74% 0.0 mm 0 W/m2
06:22 8.9 °C 4.7 °C 1005.6 hPa NNE 2.6 km/h 7.2 km/h 75% 0.0 mm 0 W/m2
06:27 8.6 °C 4.6 °C 1006.0 hPa North 3.5 km/h 7.2 km/h 76% 0.0 mm 0 W/m2
06:32 8.5 °C 4.5 °C 1006.3 hPa North 3.5 km/h 7.2 km/h 76% 0.0 mm 0 W/m2
06:37 8.7 °C 4.7 °C 1006.3 hPa North 3.5 km/h 9.7 km/h 76% 0.0 mm 0 W/m2
06:42 8.6 °C 4.6 °C 1006.3 hPa North 3.5 km/h 9.7 km/h 76% 0.0 mm 0 W/m2
06:47 8.5 °C 4.5 °C 1006.3 hPa NNW 1.1 km/h 8.7 km/h 76% 0.0 mm 0 W/m2
06:52 8.5 °C 4.7 °C 1006.3 hPa NW 2.6 km/h 7.2 km/h 77% 0.0 mm 0 W/m2
06:57 8.3 °C 4.5 °C 1006.7 hPa NNW 2.6 km/h 7.2 km/h 77% 0.0 mm 0 W/m2
07:02 8.2 °C 4.4 °C 1006.7 hPa NW 2.6 km/h 6.1 km/h 77% 0.0 mm 1 W/m2
07:07 8.3 °C 4.5 °C 1006.7 hPa NNW 1.1 km/h 6.1 km/h 77% 0.0 mm 4 W/m2
07:12 8.2 °C 4.4 °C 1006.7 hPa North 2.6 km/h 6.1 km/h 77% 0.0 mm 6 W/m2
07:17 8.2 °C 4.4 °C 1006.7 hPa Calm   5.0 km/h 77% 0.0 mm 9 W/m2
07:22 8.1 °C 4.3 °C 1006.7 hPa North 2.6 km/h 6.1 km/h 77% 0.0 mm 46 W/m2
07:27 8.5 °C 4.7 °C 1006.7 hPa North 3.5 km/h 6.1 km/h 77% 0.0 mm 57 W/m2
07:32 9.1 °C 4.9 °C 1006.7 hPa North 5.0 km/h 7.2 km/h 75% 0.0 mm 68 W/m2
07:37 9.8 °C 5.4 °C 1006.7 hPa NNE 6.1 km/h 9.7 km/h 74% 0.0 mm 79 W/m2
07:42 10.1 °C 4.7 °C 1006.7 hPa North 11.1 km/h 20.9 km/h 69% 0.0 mm 90 W/m2
07:47 10.6 °C 4.5 °C 1007.0 hPa North 11.1 km/h 20.9 km/h 66% 0.0 mm 100 W/m2
07:52 11.0 °C 4.4 °C 1007.0 hPa North 5.0 km/h 20.9 km/h 64% 0.0 mm 110 W/m2
07:57 11.4 °C 4.8 °C 1007.0 hPa NNW 5.0 km/h 14.8 km/h 64% 0.0 mm 129 W/m2
08:02 11.6 °C 4.8 °C 1007.0 hPa North 5.0 km/h 8.7 km/h 63% 0.0 mm 142 W/m2
08:07 12.0 °C 4.9 °C 1007.0 hPa North 3.5 km/h 8.7 km/h 62% 0.0 mm 155 W/m2
08:12 12.4 °C 5.1 °C 1007.3 hPa North 3.5 km/h 8.7 km/h 61% 0.0 mm 177 W/m2
08:17 12.4 °C 5.1 °C 1007.3 hPa North 5.0 km/h 8.7 km/h 61% 0.0 mm 185 W/m2
08:22 12.7 °C 5.4 °C 1007.3 hPa North 2.6 km/h 8.7 km/h 61% 0.0 mm 181 W/m2
08:27 12.9 °C 5.1 °C 1007.3 hPa North 1.1 km/h 7.2 km/h 59% 0.0 mm 183 W/m2
08:32 13.3 °C 5.2 °C 1007.3 hPa North 5.0 km/h 8.7 km/h 58% 0.0 mm 192 W/m2
08:37 13.4 °C 5.1 °C 1007.3 hPa North 3.5 km/h 8.7 km/h 57% 0.0 mm 203 W/m2
08:42 13.7 °C 5.3 °C 1007.3 hPa North 3.5 km/h 9.7 km/h 57% 0.0 mm 214 W/m2
08:47 13.5 °C 4.9 °C 1007.3 hPa North 5.0 km/h 12.2 km/h 56% 0.0 mm 225 W/m2
08:52 13.3 °C 4.7 °C 1007.3 hPa North 11.1 km/h 13.4 km/h 56% 0.0 mm 238 W/m2
08:57 13.1 °C 4.5 °C 1007.3 hPa NNW 5.0 km/h 14.8 km/h 56% 0.0 mm 251 W/m2
09:02 13.0 °C 4.4 °C 1007.7 hPa NW 8.7 km/h 14.8 km/h 56% 0.0 mm 263 W/m2
09:07 13.2 °C 4.6 °C 1007.7 hPa NW 14.8 km/h 19.5 km/h 56% 0.0 mm 94 W/m2
09:12 12.7 °C 4.4 °C 1007.7 hPa NW 9.7 km/h 19.5 km/h 57% 0.0 mm 218 W/m2
09:17 13.2 °C 5.1 °C 1007.7 hPa NNW 5.0 km/h 18.3 km/h 58% 0.0 mm 328 W/m2
09:22 13.5 °C 5.2 °C 1007.7 hPa NNW 8.7 km/h 14.8 km/h 57% 0.0 mm 306 W/m2
09:27 13.5 °C 5.2 °C 1007.7 hPa NW 7.2 km/h 18.3 km/h 57% 0.0 mm 310 W/m2
09:32 13.8 °C 5.4 °C 1007.7 hPa NW 8.7 km/h 18.3 km/h 57% 0.0 mm 333 W/m2
09:37 14.2 °C 5.6 °C 1007.3 hPa NW 7.2 km/h 13.4 km/h 56% 0.0 mm 308 W/m2
09:42 14.1 °C 5.2 °C 1007.3 hPa NNW 6.1 km/h 18.3 km/h 55% 0.0 mm 278 W/m2
09:47 14.5 °C 5.8 °C 1007.7 hPa NNW 8.7 km/h 18.3 km/h 56% 0.0 mm 253 W/m2
09:52 14.7 °C 5.5 °C 1008.0 hPa NNW 6.1 km/h 18.3 km/h 54% 0.0 mm 108 W/m2
09:57 14.6 °C 5.7 °C 1007.7 hPa NW 9.7 km/h 18.3 km/h 55% 0.0 mm 76 W/m2
10:02 14.4 °C 5.5 °C 1008.0 hPa NW 8.7 km/h 14.8 km/h 55% 0.0 mm 121 W/m2
10:07 14.8 °C 5.6 °C 1008.0 hPa NNW 11.1 km/h 14.8 km/h 54% 0.0 mm 133 W/m2
10:12 14.9 °C 5.9 °C 1007.7 hPa NNW 8.7 km/h 14.8 km/h 55% 0.0 mm 87 W/m2
10:17 14.7 °C 5.5 °C 1008.0 hPa NNW 9.7 km/h 18.3 km/h 54% 0.0 mm 103 W/m2
10:22 14.9 °C 5.9 °C 1008.0 hPa NNW 12.2 km/h 18.3 km/h 55% 0.0 mm 143 W/m2
10:27 15.2 °C 5.7 °C 1007.7 hPa NNW 13.4 km/h 18.3 km/h 53% 0.0 mm 185 W/m2
10:32 15.3 °C 5.8 °C 1008.0 hPa NW 8.7 km/h 18.3 km/h 53% 0.0 mm 215 W/m2
10:37 15.3 °C 5.8 °C 1008.0 hPa NW 6.1 km/h 18.3 km/h 53% 0.0 mm 356 W/m2
10:42 15.8 °C 5.9 °C 1008.0 hPa NNW 9.7 km/h 27.0 km/h 52% 0.0 mm 474 W/m2
10:47 16.1 °C 5.7 °C 1008.0 hPa NNW 7.2 km/h 27.0 km/h 50% 0.0 mm 417 W/m2
10:52 16.0 °C 5.9 °C 1008.0 hPa NNW 11.1 km/h 17.2 km/h 51% 0.0 mm 316 W/m2
10:57 15.7 °C 6.2 °C 1008.0 hPa NNW 17.2 km/h 21.9 km/h 53% 0.0 mm 387 W/m2
11:02 15.4 °C 5.9 °C 1008.0 hPa North 13.4 km/h 27.0 km/h 53% 0.0 mm 393 W/m2
11:07 15.4 °C 6.2 °C 1008.0 hPa NNW 19.5 km/h 28.0 km/h 54% 0.0 mm 392 W/m2
11:12 15.1 °C 5.9 °C 1008.0 hPa NNW 15.8 km/h 28.0 km/h 54% 0.0 mm 252 W/m2
11:17 15.4 °C 6.4 °C 1008.0 hPa NNW 14.8 km/h 28.0 km/h 55% 0.0 mm 353 W/m2
11:22 15.6 °C 6.3 °C 1008.0 hPa NNW 14.8 km/h 27.0 km/h 54% 0.0 mm 293 W/m2
11:27 15.5 °C 6.2 °C 1007.7 hPa NNW 14.8 km/h 29.4 km/h 54% 0.0 mm 355 W/m2
11:32 15.3 °C 6.1 °C 1008.0 hPa North 15.8 km/h 29.4 km/h 54% 0.0 mm 220 W/m2
11:37 15.0 °C 5.8 °C 1007.7 hPa North 15.8 km/h 27.0 km/h 54% 0.0 mm 392 W/m2
11:42 15.1 °C 5.9 °C 1008.0 hPa North 15.8 km/h 25.6 km/h 54% 0.0 mm 225 W/m2
11:47 15.2 °C 6.2 °C 1007.7 hPa NNW 17.2 km/h 27.0 km/h 55% 0.0 mm 349 W/m2
11:52 15.1 °C 6.1 °C 1007.3 hPa NNW 18.3 km/h 27.0 km/h 55% 0.0 mm 189 W/m2
11:57 14.9 °C 6.2 °C 1007.3 hPa NNW 12.2 km/h 28.0 km/h 56% 0.0 mm 184 W/m2
12:02 15.1 °C 6.1 °C 1007.3 hPa NNW 8.7 km/h 29.4 km/h 55% 0.0 mm 329 W/m2
12:07 15.3 °C 6.3 °C 1007.3 hPa NW 15.8 km/h 29.4 km/h 55% 0.0 mm 400 W/m2
12:12 15.6 °C 6.3 °C 1007.3 hPa NNW 19.5 km/h 33.1 km/h 54% 0.0 mm 175 W/m2
12:17 15.5 °C 6.2 °C 1007.3 hPa NNW 15.8 km/h 33.1 km/h 54% 0.0 mm 400 W/m2
12:22 15.8 °C 6.5 °C 1007.0 hPa NNW 12.2 km/h 30.6 km/h 54% 0.0 mm 383 W/m2
12:27 15.6 °C 6.1 °C 1007.0 hPa NNW 12.2 km/h 28.0 km/h 53% 0.0 mm 183 W/m2
12:32 15.6 °C 6.3 °C 1007.0 hPa North 14.8 km/h 27.0 km/h 54% 0.0 mm 425 W/m2
12:37 15.8 °C 6.5 °C 1007.0 hPa North 14.8 km/h 29.4 km/h 54% 0.0 mm 296 W/m2
12:42 15.6 °C 6.3 °C 1007.0 hPa North 11.1 km/h 29.4 km/h 54% 0.0 mm 189 W/m2
12:47 15.8 °C 6.8 °C 1006.7 hPa North 11.1 km/h 25.6 km/h 55% 0.0 mm 454 W/m2
12:53 16.1 °C 6.5 °C 1007.0 hPa NNW 15.8 km/h 21.9 km/h 53% 0.0 mm 160 W/m2
12:58 15.3 °C 5.8 °C 1007.0 hPa NW 12.2 km/h 28.0 km/h 53% 0.0 mm 189 W/m2
13:03 15.1 °C 5.9 °C 1006.7 hPa NW 13.4 km/h 28.0 km/h 54% 0.0 mm 224 W/m2
13:08 15.4 °C 6.4 °C 1007.0 hPa NW 14.8 km/h 28.0 km/h 55% 0.0 mm 208 W/m2
13:13 15.5 °C 6.2 °C 1006.7 hPa NW 14.8 km/h 28.0 km/h 54% 0.0 mm 244 W/m2
13:18 15.6 °C 5.8 °C 1007.0 hPa NNW 14.8 km/h 29.4 km/h 52% 0.0 mm 218 W/m2
13:23 15.2 °C 5.7 °C 1007.0 hPa NNW 18.3 km/h 29.4 km/h 53% 0.0 mm 123 W/m2
13:28 14.9 °C 5.7 °C 1007.3 hPa NNW 15.8 km/h 28.0 km/h 54% 0.0 mm 338 W/m2
13:33 15.6 °C 6.3 °C 1007.0 hPa NNW 14.8 km/h 30.6 km/h 54% 0.0 mm 284 W/m2
13:38 15.9 °C 6.3 °C 1007.0 hPa NNW 17.2 km/h 30.6 km/h 53% 0.0 mm 258 W/m2
13:43 16.0 °C 6.2 °C 1007.0 hPa NNW 13.4 km/h 24.5 km/h 52% 0.0 mm 250 W/m2
13:48 16.0 °C 5.9 °C 1007.0 hPa NNW 14.8 km/h 24.5 km/h 51% 0.0 mm 237 W/m2
13:53 16.1 °C 6.2 °C 1007.0 hPa NNW 13.4 km/h 25.6 km/h 52% 0.0 mm 238 W/m2
13:58 15.9 °C 6.3 °C 1006.7 hPa North 13.4 km/h 25.6 km/h 53% 0.0 mm 99 W/m2
14:03 15.9 °C 6.6 °C 1007.0 hPa NNW 14.8 km/h 28.0 km/h 54% 0.0 mm 129 W/m2
14:08 16.0 °C 6.2 °C 1006.7 hPa NNW 13.4 km/h 28.0 km/h 52% 0.0 mm 108 W/m2
14:13 15.9 °C 6.3 °C 1007.0 hPa North 11.1 km/h 23.3 km/h 53% 0.0 mm 52 W/m2
14:18 14.9 °C 5.9 °C 1007.0 hPa North 13.4 km/h 23.3 km/h 55% 0.0 mm 62 W/m2
14:23 15.0 °C 6.3 °C 1006.7 hPa NW 9.7 km/h 23.3 km/h 56% 0.0 mm 57 W/m2
14:28 15.9 °C 6.6 °C 1007.0 hPa NW 13.4 km/h 20.9 km/h 54% 0.0 mm 56 W/m2
14:33 16.1 °C 6.5 °C 1007.0 hPa NNW 8.7 km/h 27.0 km/h 53% 0.0 mm 59 W/m2
14:38 16.1 °C 5.9 °C 1007.0 hPa NW 15.8 km/h 31.7 km/h 51% 0.0 mm 56 W/m2
14:43 16.0 °C 5.9 °C 1007.0 hPa NW 18.3 km/h 35.6 km/h 51% 0.0 mm 54 W/m2
14:48 16.4 °C 6.5 °C 1007.0 hPa NW 15.8 km/h 35.6 km/h 52% 0.0 mm 54 W/m2
14:53 16.2 °C 6.3 °C 1006.7 hPa NW 12.2 km/h 31.7 km/h 52% 0.0 mm 55 W/m2
14:58 16.5 °C 6.6 °C 1007.0 hPa NW 14.8 km/h 31.7 km/h 52% 0.0 mm 56 W/m2
15:03 16.7 °C 6.8 °C 1007.3 hPa NW 15.8 km/h 25.6 km/h 52% 0.0 mm 57 W/m2
15:08 16.5 °C 6.3 °C 1007.3 hPa NNW 14.8 km/h 20.9 km/h 51% 0.0 mm 57 W/m2
15:14 16.7 °C 6.8 °C 1007.3 hPa NNW 9.7 km/h 20.9 km/h 52% 0.0 mm 59 W/m2
15:19 16.3 °C 5.9 °C 1007.3 hPa NW 15.8 km/h 30.6 km/h 50% 0.0 mm 80 W/m2
15:24 16.4 °C 6.5 °C 1007.0 hPa NW 14.8 km/h 30.6 km/h 52% 0.0 mm 139 W/m2
15:29 16.2 °C 5.8 °C 1007.0 hPa NW 18.3 km/h 27.0 km/h 50% 0.0 mm 142 W/m2
15:34 16.3 °C 6.4 °C 1007.0 hPa NW 14.8 km/h 27.0 km/h 52% 0.0 mm 131 W/m2
15:39 16.3 °C 5.9 °C 1007.0 hPa NW 11.1 km/h 20.9 km/h 50% 0.0 mm 123 W/m2
15:44 16.4 °C 6.2 °C 1007.3 hPa NW 12.2 km/h 20.9 km/h 51% 0.0 mm 116 W/m2
15:49 16.4 °C 5.9 °C 1007.3 hPa NW 14.8 km/h 20.9 km/h 50% 0.0 mm 108 W/m2
15:54 16.5 °C 6.3 °C 1007.3 hPa NW 13.4 km/h 20.9 km/h 51% 0.0 mm 100 W/m2
15:59 16.4 °C 5.7 °C 1007.3 hPa NNW 15.8 km/h 24.5 km/h 49% 0.0 mm 94 W/m2
16:04 16.4 °C 5.7 °C 1007.3 hPa NNW 14.8 km/h 24.5 km/h 49% 0.0 mm 83 W/m2
16:09 16.2 °C 5.5 °C 1007.3 hPa NNW 8.7 km/h 24.5 km/h 49% 0.0 mm 77 W/m2
16:14 16.4 °C 5.9 °C 1007.3 hPa NW 8.7 km/h 23.3 km/h 50% 0.0 mm 65 W/m2
16:19 16.1 °C 5.1 °C 1007.7 hPa NW 11.1 km/h 24.5 km/h 48% 0.0 mm 57 W/m2
16:24 16.0 °C 5.6 °C 1007.3 hPa NW 13.4 km/h 25.6 km/h 50% 0.0 mm 54 W/m2
16:29 16.1 °C 5.9 °C 1007.3 hPa NW 8.7 km/h 25.6 km/h 51% 0.0 mm 55 W/m2
16:34 16.0 °C 5.6 °C 1007.7 hPa NW 18.3 km/h 24.5 km/h 50% 0.0 mm 58 W/m2
16:39 15.8 °C 5.9 °C 1007.7 hPa NW 15.8 km/h 27.0 km/h 52% 0.0 mm 55 W/m2
16:44 15.7 °C 6.2 °C 1007.7 hPa NNW 11.1 km/h 27.0 km/h 53% 0.0 mm 47 W/m2
16:49 15.8 °C 6.2 °C 1007.7 hPa NNW 7.2 km/h 21.9 km/h 53% 0.0 mm 41 W/m2
16:54 15.7 °C 6.2 °C 1007.7 hPa NNW 9.7 km/h 19.5 km/h 53% 0.0 mm 35 W/m2
16:59 15.5 °C 6.2 °C 1008.0 hPa North 9.7 km/h 19.5 km/h 54% 0.0 mm 30 W/m2
17:04 15.3 °C 6.3 °C 1008.0 hPa North 9.7 km/h 17.2 km/h 55% 0.0 mm 25 W/m2
17:09 15.2 °C 6.2 °C 1008.0 hPa NNW 7.2 km/h 15.8 km/h 55% 0.0 mm 19 W/m2
17:14 14.6 °C 6.2 °C 1008.4 hPa NNW 11.1 km/h 15.8 km/h 57% 0.0 mm 10 W/m2
17:19 13.9 °C 6.3 °C 1008.0 hPa NNW 3.5 km/h 15.8 km/h 60% 0.0 mm 6 W/m2
17:25 13.7 °C 6.1 °C 1008.0 hPa NNW 6.1 km/h 20.9 km/h 60% 0.0 mm 3 W/m2
17:30 13.5 °C 6.1 °C 1008.4 hPa NNW 6.1 km/h 20.9 km/h 61% 0.0 mm 1 W/m2
17:35 13.2 °C 6.3 °C 1008.4 hPa NNW 9.7 km/h 17.2 km/h 63% 0.0 mm 0 W/m2
17:40 13.0 °C 6.3 °C 1008.4 hPa NNW 9.7 km/h 17.2 km/h 64% 0.0 mm 0 W/m2
17:45 12.8 °C 6.2 °C 1008.4 hPa NNW 7.2 km/h 15.8 km/h 64% 0.0 mm 0 W/m2
17:50 12.7 °C 6.1 °C 1008.4 hPa NNW 8.7 km/h 15.8 km/h 64% 0.0 mm 0 W/m2
17:55 12.6 °C 6.0 °C 1008.4 hPa NW 9.7 km/h 14.8 km/h 64% 0.0 mm 0 W/m2
18:00 12.5 °C 5.9 °C 1008.4 hPa NNW 12.2 km/h 15.8 km/h 64% 0.0 mm 0 W/m2
18:05 12.4 °C 5.8 °C 1008.7 hPa NNW 8.7 km/h 18.3 km/h 64% 0.0 mm 0 W/m2
18:10 12.3 °C 5.7 °C 1008.7 hPa NW 8.7 km/h 18.3 km/h 64% 0.0 mm 0 W/m2
18:15 12.3 °C 5.9 °C 1008.7 hPa NNW 12.2 km/h 19.5 km/h 65% 0.0 mm 0 W/m2
18:20 12.2 °C 5.8 °C 1009.0 hPa NNW 9.7 km/h 19.5 km/h 65% 0.0 mm 0 W/m2
18:25 12.2 °C 5.6 °C 1008.7 hPa NW 14.8 km/h 20.9 km/h 64% 0.0 mm 0 W/m2
18:30 12.4 °C 5.6 °C 1008.7 hPa NW 8.7 km/h 20.9 km/h 63% 0.0 mm 0 W/m2
18:35 12.3 °C 5.4 °C 1009.0 hPa NNW 9.7 km/h 20.9 km/h 63% 0.0 mm 0 W/m2
18:40 12.2 °C 5.6 °C 1009.0 hPa NNW 11.1 km/h 18.3 km/h 64% 0.0 mm 0 W/m2
18:45 11.9 °C 5.8 °C 1009.0 hPa North 8.7 km/h 17.2 km/h 66% 0.0 mm 0 W/m2
18:50 11.6 °C 5.7 °C 1009.0 hPa NNW 8.7 km/h 17.2 km/h 67% 0.0 mm 0 W/m2
18:55 11.4 °C 5.5 °C 1009.4 hPa NNW 6.1 km/h 17.2 km/h 67% 0.0 mm 0 W/m2
19:00 11.3 °C 5.4 °C 1009.4 hPa North 3.5 km/h 13.4 km/h 67% 0.0 mm 0 W/m2
19:05 11.3 °C 5.4 °C 1009.4 hPa NNW 1.1 km/h 11.1 km/h 67% 0.0 mm 0 W/m2
19:10 11.2 °C 5.3 °C 1009.4 hPa NNW 2.6 km/h 7.2 km/h 67% 0.0 mm 0 W/m2
19:15 11.0 °C 5.1 °C 1009.4 hPa Calm   5.0 km/h 67% 0.0 mm 0 W/m2
19:20 10.8 °C 5.3 °C 1009.4 hPa ENE 1.1 km/h 5.0 km/h 69% 0.0 mm 0 W/m2
19:25 10.6 °C 5.3 °C 1009.7 hPa South 3.5 km/h 5.0 km/h 70% 0.0 mm 0 W/m2
19:30 10.5 °C 5.4 °C 1009.7 hPa SE 3.5 km/h 5.0 km/h 71% 0.0 mm 0 W/m2
19:35 10.6 °C 5.8 °C 1009.7 hPa East 3.5 km/h 7.2 km/h 72% 0.0 mm 0 W/m2
19:40 10.8 °C 5.6 °C 1009.7 hPa ENE 3.5 km/h 7.2 km/h 70% 0.0 mm 0 W/m2
19:45 10.8 °C 5.3 °C 1009.7 hPa NE 1.1 km/h 5.0 km/h 69% 0.0 mm 0 W/m2
19:50 10.7 °C 5.2 °C 1009.7 hPa North 1.1 km/h 6.1 km/h 69% 0.0 mm 0 W/m2
19:55 10.4 °C 5.2 °C 1009.7 hPa NW 2.6 km/h 6.1 km/h 70% 0.0 mm 0 W/m2
20:00 10.2 °C 5.2 °C 1009.7 hPa NW 2.6 km/h 5.0 km/h 71% 0.0 mm 0 W/m2
20:05 10.1 °C 5.3 °C 1010.0 hPa NW 3.5 km/h 6.1 km/h 72% 0.0 mm 0 W/m2
20:10 10.0 °C 5.4 °C 1010.0 hPa NNW 3.5 km/h 6.1 km/h 73% 0.0 mm 0 W/m2
20:15 10.0 °C 5.4 °C 1010.0 hPa NW 3.5 km/h 6.1 km/h 73% 0.0 mm 0 W/m2
20:20 9.8 °C 5.4 °C 1010.0 hPa NW 5.0 km/h 7.2 km/h 74% 0.0 mm 0 W/m2
20:25 9.9 °C 5.5 °C 1010.0 hPa NNW 6.1 km/h 9.7 km/h 74% 0.0 mm 0 W/m2
20:30 10.0 °C 5.4 °C 1010.0 hPa NNW 6.1 km/h 9.7 km/h 73% 0.0 mm 0 W/m2
20:40 10.2 °C 5.6 °C 1010.0 hPa NNW 5.0 km/h 11.1 km/h 73% 0.0 mm 0 W/m2
20:45 10.1 °C 5.5 °C 1010.0 hPa NNW 2.6 km/h 11.1 km/h 73% 0.0 mm 0 W/m2
20:50 10.0 °C 5.4 °C 1010.4 hPa NNW 1.1 km/h 9.7 km/h 73% 0.0 mm 0 W/m2
20:55 9.7 °C 5.3 °C 1010.4 hPa SE 2.6 km/h 5.0 km/h 74% 0.0 mm 0 W/m2
21:00 9.4 °C 5.0 °C 1010.4 hPa Calm   5.0 km/h 74% 0.0 mm 0 W/m2
21:06 9.3 °C 5.1 °C 1010.4 hPa Calm   2.6 km/h 75% 0.0 mm 0 W/m2
21:11 9.2 °C 5.0 °C 1010.7 hPa Calm   2.6 km/h 75% 0.0 mm 0 W/m2
21:16 9.1 °C 5.1 °C 1010.4 hPa SSW 2.6 km/h 3.5 km/h 76% 0.0 mm 0 W/m2
21:21 9.2 °C 5.2 °C 1010.4 hPa WSW 1.1 km/h 3.5 km/h 76% 0.0 mm 0 W/m2
21:26 8.8 °C 5.0 °C 1010.4 hPa WNW 2.6 km/h 5.0 km/h 77% 0.0 mm 0 W/m2
21:31 8.7 °C 4.9 °C 1010.4 hPa Calm   5.0 km/h 77% 0.0 mm 0 W/m2
21:36 8.5 °C 4.7 °C 1010.4 hPa Calm   5.0 km/h 77% 0.0 mm 0 W/m2
21:41 8.3 °C 4.3 °C 1010.7 hPa Calm   1.1 km/h 76% 0.0 mm 0 W/m2
21:46 8.2 °C 4.4 °C 1010.7 hPa Calm   3.5 km/h 77% 0.0 mm 0 W/m2
21:51 8.3 °C 4.7 °C 1010.7 hPa WNW 1.1 km/h 3.5 km/h 78% 0.0 mm 0 W/m2
21:56 8.4 °C 4.9 °C 1010.7 hPa Calm   3.5 km/h 79% 0.0 mm 0 W/m2
22:01 8.2 °C 4.8 °C 1010.7 hPa NNW 2.6 km/h 3.5 km/h 79% 0.0 mm 0 W/m2
22:06 8.3 °C 5.1 °C 1010.7 hPa NW 1.1 km/h 7.2 km/h 80% 0.0 mm 0 W/m2
22:11 8.3 °C 5.1 °C 1010.7 hPa WNW 3.5 km/h 7.2 km/h 80% 0.0 mm 0 W/m2
22:16 8.4 °C 5.2 °C 1010.7 hPa Calm   5.0 km/h 80% 0.0 mm 0 W/m2
22:21 8.2 °C 4.8 °C 1010.7 hPa Calm   5.0 km/h 79% 0.0 mm 0 W/m2
22:26 8.2 °C 4.9 °C 1010.7 hPa Calm   3.5 km/h 80% 0.0 mm 0 W/m2
22:31 8.0 °C 4.8 °C 1010.7 hPa NNW 2.6 km/h 3.5 km/h 80% 0.0 mm 0 W/m2
22:36 8.2 °C 4.9 °C 1010.7 hPa NNW 1.1 km/h 3.5 km/h 80% 0.0 mm 0 W/m2
22:41 8.0 °C 4.8 °C 1010.7 hPa NNW 2.6 km/h 3.5 km/h 80% 0.0 mm 0 W/m2
22:46 8.2 °C 5.1 °C 1010.7 hPa NNW 2.6 km/h 6.1 km/h 81% 0.0 mm 0 W/m2
22:51 8.1 °C 4.8 °C 1010.7 hPa NNW 2.6 km/h 6.1 km/h 80% 0.0 mm 0 W/m2
22:56 8.0 °C 4.8 °C 1010.7 hPa NW 1.1 km/h 6.1 km/h 80% 0.0 mm 0 W/m2
23:01 8.0 °C 4.9 °C 1010.7 hPa NW 2.6 km/h 6.1 km/h 81% 0.0 mm 0 W/m2
23:06 8.2 °C 5.1 °C 1011.1 hPa Calm   6.1 km/h 81% 0.0 mm 0 W/m2
23:11 8.1 °C 4.8 °C 1011.1 hPa NW 1.1 km/h 7.2 km/h 80% 0.0 mm 0 W/m2
23:16 8.2 °C 4.9 °C 1010.7 hPa NW 3.5 km/h 7.2 km/h 80% 0.0 mm 0 W/m2
23:21 8.2 °C 4.9 °C 1011.1 hPa NNW 3.5 km/h 6.1 km/h 80% 0.0 mm 0 W/m2
23:26 8.1 °C 4.8 °C 1011.1 hPa NW 3.5 km/h 7.2 km/h 80% 0.0 mm 0 W/m2
23:31 7.8 °C 4.7 °C 1011.1 hPa NNW 3.5 km/h 7.2 km/h 81% 0.0 mm 0 W/m2
23:36 7.7 °C 4.7 °C 1011.1 hPa NNW 2.6 km/h 7.2 km/h 81% 0.0 mm 0 W/m2
23:41 7.6 °C 4.6 °C 1011.1 hPa NNW 3.5 km/h 7.2 km/h 81% 0.0 mm 0 W/m2
23:46 7.9 °C 4.8 °C 1010.7 hPa North 3.5 km/h 8.7 km/h 81% 0.0 mm 0 W/m2
23:51 8.6 °C 5.0 °C 1011.1 hPa North 6.1 km/h 9.7 km/h 78% 0.0 mm 0 W/m2
23:56 9.0 °C 4.8 °C 1011.1 hPa NNW 3.5 km/h 9.7 km/h 75% 0.0 mm 0 W/m2
Northern Hawkes Bay. New Zealand Historic Data
Compliments of Weather Underground - 2.25 mb